ADDS METAR Data INFO
IDs: Format: Raw Decoded Include TAF

Data at: 2019 UTC 18 Jul 2018

KSYF 182015Z AUTO 35004KT 10SM CLR 32/15 A3003 RMK AO2 T03160145
KSYF 181955Z AUTO 00000KT 10SM CLR 31/15 A3003 RMK AO2 T03070153
KSYF 181935Z AUTO 00000KT 10SM CLR 30/14 A3003 RMK AO2 T03010137
KSYF 181915Z AUTO 00000KT 10SM CLR 30/17 A3004 RMK AO2 T02980166
KSYF 181855Z AUTO 12003KT 10SM SCT045 30/17 A3004 RMK AO2 T02950171
KSYF 181835Z AUTO 22003KT 10SM CLR 29/18 A3005 RMK AO2 T02890176
KSYF 181815Z AUTO 17008KT 10SM CLR 28/18 A3005 RMK AO2 T02840177
KSYF 181755Z AUTO 17004KT 10SM SCT038 SCT044 28/17 A3006 RMK AO2 T02750174 10280 20193
KSYF 181735Z AUTO 23007KT 10SM BKN036 BKN044 27/18 A3007 RMK AO2 T02680176
KSYF 181715Z AUTO 17007KT 10SM SCT031 BKN038 27/18 A3007 RMK AO2 T02690180
KSYF 181655Z AUTO 16007KT 10SM SCT029 SCT037 27/19 A3007 RMK AO2 T02670186
KSYF 181635Z AUTO 15009G14KT 10SM SCT023 26/19 A3007 RMK AO2 T02590185
KSYF 181615Z AUTO 14009KT 10SM CLR 26/19 A3007 RMK AO2 T02570189
KSYF 181555Z AUTO 14008KT 10SM SCT015 25/19 A3007 RMK AO2 T02460189
KSYF 181535Z AUTO 13011G14KT 10SM BKN013 23/19 A3007 RMK AO2 T02340188
KSYF 181515Z AUTO 13008KT 10SM SCT009 OVC013 23/20 A3008 RMK AO2 T02250195
KSYF 181455Z AUTO 13007KT 10SM SCT006 OVC013 22/20 A3009 RMK AO2 T02150195
KSYF 181435Z AUTO 11006KT 5SM BR BKN008 OVC013 21/20 A3009 RMK AO2 T02090197
KSYF 181415Z AUTO 11006KT 3SM BR OVC008 21/20 A3010 RMK AO2 T02050197
KSYF 181355Z AUTO 10004KT 2 1/2SM BR SCT004 OVC008 21/20 A3010 RMK AO2 T02050197
KSYF 181335Z AUTO 00000KT 2 1/2SM BR BKN004 OVC008 20/20 A3010 RMK AO2 T02030195
KSYF 181315Z AUTO 00000KT 3SM BR OVC004 20/19 A3010 RMK AO2 T02010192
KSYF 181255Z AUTO 00000KT 3SM BR OVC004 20/19 A3012 RMK AO2 T02010193
KSYF 181235Z AUTO 00000KT 4SM BR OVC004 20/19 A3013 RMK AO2 T01980191
KSYF 181215Z AUTO 00000KT 5SM BR OVC004 20/19 A3013 RMK AO2 T01960191
KSYF 181155Z AUTO 36004KT 5SM BR OVC004 19/19 A3013 RMK AO2 T01930188 10211 20183
KSYF 181135Z AUTO 00000KT 7SM OVC004 19/19 A3012 RMK AO2 T01900188
KSYF 181115Z AUTO 02005KT 5SM BR SCT006 18/18 A3010 RMK AO2 T01830176
KSYF 181055Z AUTO 15006KT 7SM CLR 19/18 A3008 RMK AO2 T01870180
KSYF 181035Z AUTO 16006KT 7SM CLR 19/18 A3007 RMK AO2 T01850178
KSYF 181015Z AUTO 15008KT 10SM CLR 19/18 A3005 RMK AO2 T01870180
KSYF 180955Z AUTO 14010KT 10SM CLR 19/18 A3004 RMK AO2 T01870180
KSYF 180935Z AUTO 14006KT 10SM CLR 19/18 A3005 RMK AO2 T01880180
KSYF 180915Z AUTO 14006KT 10SM CLR 19/18 A3007 RMK AO2 T01900181
KSYF 180855Z AUTO 15006KT 10SM CLR 19/18 A3006 RMK AO2 T01900180
KSYF 180835Z AUTO 10004KT 10SM CLR 19/18 A3008 RMK AO2 T01920181
KSYF 180815Z AUTO 10005KT 10SM CLR 20/18 A3009 RMK AO2 T01950183
KSYF 180755Z AUTO 11004KT 10SM CLR 20/18 A3009 RMK AO2 T01980182
KSYF 180735Z AUTO 12006KT 10SM CLR 20/18 A3010 RMK AO2 T02020183
KSYF 180715Z AUTO 13007KT 10SM CLR 20/18 A3010 RMK AO2 T02040182
KSYF 180655Z AUTO 13007KT 10SM CLR 21/18 A3010 RMK AO2 T02060183
KSYF 180635Z AUTO 14008KT 10SM SCT075 SCT085 20/18 A3010 RMK AO2 T02020181
KSYF 180615Z AUTO 13007KT 10SM BKN043 BKN075 BKN085 21/18 A3011 RMK AO2 T02090181
KSYF 180555Z AUTO 13006KT 10SM OVC045 21/18 A3013 RMK AO2 T02100180 10281 20208 402890163
KSYF 180535Z AUTO 12005KT 10SM BKN047 OVC050 21/18 A3013 RMK AO2 T02100180
KSYF 180515Z AUTO 09007KT 10SM SCT049 21/18 A3011 RMK AO2 T02100180
KSYF 180455Z AUTO 13010KT 10SM CLR 21/18 A3010 RMK AO2 T02110176
KSYF 180435Z AUTO 14016KT 10SM CLR 21/18 A3008 RMK AO2 T02100180
KSYF 180415Z AUTO 13007KT 10SM CLR 21/18 A3013 RMK AO2 T02120178
KSYF 180355Z AUTO 13006KT 10SM CLR 22/18 A3012 RMK AO2 T02170178
KSYF 180335Z AUTO 11007KT 10SM CLR 22/18 A3012 RMK AO2 T02200177
KSYF 180315Z AUTO 12007KT 10SM CLR 22/18 A3012 RMK AO2 T02230178
KSYF 180255Z AUTO 11007KT 10SM CLR 23/18 A3011 RMK AO2 T02250177
KSYF 180235Z AUTO 10008KT 10SM CLR 23/18 A3011 RMK AO2 T02300180
KSYF 180215Z AUTO 10008KT 10SM CLR 24/18 A3010 RMK AO2 T02360180
KSYF 180155Z AUTO 09008KT 10SM CLR 24/18 A3011 RMK AO2 T02440179
KSYF 180135Z AUTO 09009KT 10SM CLR 25/18 A3011 RMK AO2 T02500176
KSYF 180115Z AUTO 09007KT 10SM CLR 26/17 A3011 RMK AO2 T02550168
KSYF 180055Z AUTO 10010KT 10SM CLR 27/16 A3011 RMK AO2 T02680161
KSYF 180035Z AUTO 10010KT 10SM CLR 28/16 A3011 RMK AO2 T02750163
KSYF 180015Z AUTO 10009KT 10SM SCT046 28/16 A3011 RMK AO2 T02770161
KSYF 172355Z AUTO 10008KT 10SM SCT046 28/16 A3013 RMK AO2 T02810159 10289 20252
KSYF 172335Z AUTO 10009G14KT 10SM CLR 28/16 A3013 RMK AO2 T02830157
KSYF 172315Z AUTO 09012KT 10SM SCT049 28/16 A3012 RMK AO2 T02820161
KSYF 172255Z AUTO 12009KT 10SM SCT047 28/16 A3013 RMK AO2 T02840164
KSYF 172235Z AUTO 09011G15KT 10SM BKN047 27/16 A3012 RMK AO2 T02710164
KSYF 172215Z AUTO 09008KT 10SM BKN045 28/16 A3012 RMK AO2 T02810161
KSYF 172155Z AUTO 09007G20KT 10SM BKN045 28/16 A3013 RMK AO2 T02820163
KSYF 172135Z AUTO 04007KT 10SM SCT045 28/16 A3014 RMK AO2 T02820161
KSYF 172115Z AUTO 05008KT 10SM CLR 28/16 A3014 RMK AO2 T02800162
KSYF 172055Z AUTO 06007KT 10SM SCT042 27/16 A3015 RMK AO2 T02730158
KSYF 172035Z AUTO 03007KT 10SM SCT040 27/16 A3015 RMK AO2 T02690162
KSYF 172015Z AUTO 03008KT 10SM SCT038 27/16 A3016 RMK AO2 T02680164
KSYF 172000Z AUTO 03007KT 10SM BKN038 26/16 A3016 RMK AO2 T02620162
KSYF 171935Z AUTO 03008KT 350V050 10SM SCT036 26/17 A3016 RMK AO2 T02610166
KSYF 171915Z AUTO 03009KT 10SM CLR 27/17 A3017 RMK AO2 T02690166
KSYF 171855Z AUTO 04006KT 10SM SCT034 26/16 A3017 RMK AO2 T02610162
KSYF 171835Z AUTO 04008KT 10SM SCT034 26/17 A3018 RMK AO2 T02630167
KSYF 171815Z AUTO 01003KT 10SM SCT034 26/16 A3018 RMK AO2 T02560161
KSYF 171755Z AUTO 35006KT 10SM CLR 25/16 A3018 RMK AO2 T02520158 10255 20165
KSYF 171735Z AUTO 36005KT 10SM CLR 25/16 A3018 RMK AO2 T02510163
KSYF 171715Z AUTO 36006KT 340V060 10SM CLR 25/17 A3018 RMK AO2 T02460170
KSYF 171655Z AUTO 01010G14KT 10SM SCT025 SCT030 SCT085 25/17 A3019 RMK AO2 T02450169
KSYF 171635Z AUTO 04006KT 10SM SCT030 SCT085 25/17 A3019 RMK AO2 T02520167
KSYF 171615Z AUTO 03004KT 10SM SCT085 24/16 A3019 RMK AO2 T02390158
KSYF 171555Z AUTO 00000KT 10SM CLR 23/16 A3018 RMK AO2 T02330162
KSYF 171535Z AUTO 28003KT 10SM CLR 22/16 A3018 RMK AO2 T02240161
KSYF 171515Z AUTO 30004KT 10SM CLR 22/16 A3018 RMK AO2 T02180162
KSYF 171455Z AUTO 00000KT 10SM CLR 21/16 A3018 RMK AO2 T02100161
KSYF 171435Z AUTO 23004KT 10SM CLR 20/16 A3017 RMK AO2 T02000158
KSYF 171415Z AUTO 24003KT 10SM CLR 19/16 A3017 RMK AO2 T01910157
KSYF 171355Z AUTO 00000KT 10SM CLR 19/16 A3018 RMK AO2 T01860155
KSYF 171335Z AUTO 00000KT 10SM CLR 18/15 A3017 RMK AO2 T01800151
KSYF 171315Z AUTO 00000KT 10SM CLR 18/15 A3017 RMK AO2 T01750150
KSYF 171255Z AUTO 00000KT 10SM CLR 17/15 A3017 RMK AO2 T01700151
KSYF 171235Z AUTO 00000KT 10SM CLR 17/15 A3017 RMK AO2 T01700150
KSYF 171215Z AUTO 00000KT 7SM CLR 17/15 A3017 RMK AO2 T01650151
KSYF 171155Z AUTO 00000KT 10SM CLR 17/15 A3016 RMK AO2 T01660148 10212 20163
KSYF 171135Z AUTO 09003KT 10SM CLR 17/15 A3016 RMK AO2 T01650148
KSYF 171115Z AUTO 09005KT 10SM CLR 17/15 A3016 RMK AO2 T01650149
KSYF 171055Z AUTO 07007KT 10SM CLR 17/15 A3015 RMK AO2 T01650148
KSYF 171035Z AUTO 08010KT 10SM CLR 16/15 A3016 RMK AO2 T01640147
KSYF 171015Z AUTO 08011KT 10SM SCT010 SCT014 16/15 A3017 RMK AO2 T01640148
KSYF 170955Z AUTO 06011KT 10SM BKN010 17/15 A3017 RMK AO2 T01650150
KSYF 170935Z AUTO 04015G23KT 10SM BKN008 17/15 A3016 RMK AO2 T01660154
KSYF 170915Z AUTO 05016G21KT 7SM OVC006 17/16 A3018 RMK AO2 T01700161
KSYF 170855Z AUTO 03013G20KT 10SM OVC008 17/16 A3019 RMK AO2 T01670156
KSYF 170835Z AUTO 36015G21KT 10SM -RA SCT010 BKN013 OVC028 17/15 A3021 RMK AO2 T01740154